Main page
METAR-TAF:

METAR-TAF

Airports :

Attawapiskat Airport

Attawapiskat, Ontario, Canada

latitude: 52-55-39N, longitude: 082-25-55W, elevation: 9 m

Current weather observation

The report was made 1 hour and 11 minutes ago, at 19:00 UTC
Wind 7 kt from the South, varying between South/Southeast and West/Southwest
Temperature -14°C
Humidity 39%
Pressure 1019 hPa
Visibility: 14.5 km
Overcast at a height of 11000 ft

METAR: CYAT 011900Z AUTO 19007KT 160V240 9SM OVC110 M14/M25 A3010 RMK SLP195

Time: 15:11 (20:11 UTC)

Forecast

The report was made 6 hours and 31 minutes ago, at 13:40 UTC
Forecast valid from 01 at 14 UTC to 01 at 20 UTC
Wind 5 kt from the West/Southwest
Visibility: 10 km
Clear sky
Becoming
from 01 at 18 UTC to 01 at 20 UTC
Wind 8 kt from the South
Scattered clouds at a height of 3000 ft
Broken clouds at a height of 10000 ft

TAF: CYAT 011340Z 0114/0120 25005KT P6SM SKC BECMG 0118/0120 18008KT SCT030 BKN100 RMK FCST BASED ON AUTO OBS. NXT FCST BY 021000Z

Weather observations and forecasts of more than 4000 airports (METAR and TAF reports).

The available stations are represented by yellow and red dots on the map.

Hover mouse over dot to see the name of the station.

Then click to see weather observations and forecasts.

To change the map : click on the green buttons with a black cross to zoom in, on the green button with a dash to zoom out, or on the green arrows for adjacent maps.


METAR-TAF: